Time;durP1;ratioP1;P1;durP2;ratioP2;P2;SDS_P1;SDS_P2;PMS_P1;PMS_P2;Temp;Humidity;BMP_temperature;BMP_pressure;BME280_temperature;BME280_humidity;BME280_pressure;Samples;Min_cycle;Max_cycle;Signal;HPM_P1;HPM_P2
2021/12/16 00:02:05;;;;;;;93.27;37.57;;;;;;;-145.18;100.00;47514.09;5067175;28;20311;-70
2021/12/16 00:07:20;;;;;;;77.00;33.33;;;;;;;-145.18;100.00;47502.38;5067244;28;20101;-71
2021/12/16 00:09:54;;;;;;;74.40;31.57;;;;;;;-145.18;100.00;47508.22;5066674;28;20819;-71
2021/12/16 00:34:19;;;;;;;83.30;36.40;;;;;;;-145.18;100.00;47492.59;4988858;28;20310;-71
2021/12/16 00:36:47;;;;;;;85.47;34.77;;;;;;;-145.18;100.00;47484.78;5029915;28;20262;-71
2021/12/16 00:39:24;;;;;;;86.40;35.13;;;;;;;-145.18;100.00;47500.41;5070412;28;20720;-71
2021/12/16 00:41:54;;;;;;;87.73;37.77;;;;;;;-145.18;100.00;47496.50;5070093;28;20265;-71
2021/12/16 00:44:48;;;;;;;100.40;40.17;;;;;;;-145.18;100.00;47492.59;5070502;28;20273;-71
2021/12/16 00:49:53;;;;;;;90.03;35.57;;;;;;;-145.18;100.00;47486.75;5069743;28;20299;-71
2021/12/16 00:55:29;;;;;;;81.73;34.73;;;;;;;-145.18;100.00;47484.78;5074407;28;20280;-71
2021/12/16 00:57:54;;;;;;;96.40;39.70;;;;;;;-145.18;100.00;47490.66;5069799;28;20638;-71
2021/12/16 01:00:24;;;;;;;89.33;38.80;;;;;;;-145.18;100.00;47486.75;5069691;28;20262;-71
2021/12/16 01:03:05;;;;;;;88.10;35.80;;;;;;;-145.18;100.00;47482.84;5069974;28;20041;-71
2021/12/16 01:51:58;;;;;;;91.43;37.20;;;;;;;-145.18;100.00;47480.88;5069247;28;20314;-71
2021/12/16 01:57:17;;;;;;;89.10;40.87;;;;;;;-145.18;100.00;47478.94;5060776;28;20276;-71
2021/12/16 01:59:47;;;;;;;92.80;36.50;;;;;;;-145.18;100.00;47504.31;5068586;28;20281;-71
2021/12/16 02:02:58;;;;;;;87.30;37.87;;;;;;;-145.18;100.00;47471.13;5067468;28;20268;-71
2021/12/16 02:10:36;;;;;;;80.73;32.90;;;;;;;-145.18;100.00;47490.66;5068643;28;20762;-71
2021/12/16 02:32:15;;;;;;;67.70;30.67;;;;;;;-145.18;100.00;47482.84;5068693;28;20350;-71
2021/12/16 02:34:59;;;;;;;68.53;32.17;;;;;;;-145.18;100.00;47490.66;5068283;28;20794;-71
2021/12/16 02:37:29;;;;;;;72.77;30.27;;;;;;;-145.18;100.00;47488.69;5068591;28;20254;-71
2021/12/16 02:39:55;;;;;;;73.87;31.30;;;;;;;-145.18;100.00;47480.88;5067798;28;20364;-71
2021/12/16 02:42:31;;;;;;;69.80;31.23;;;;;;;-145.18;100.00;47502.38;5066499;28;22797;-71
2021/12/16 02:50:19;;;;;;;73.60;33.70;;;;;;;-145.18;100.00;47492.59;5067978;28;20296;-71
2021/12/16 02:52:45;;;;;;;84.10;35.67;;;;;;;-145.18;100.00;47494.56;5068001;28;20273;-71
2021/12/16 02:55:15;;;;;;;74.83;32.73;;;;;;;-145.18;100.00;47498.47;5067671;28;20358;-71
2021/12/16 02:57:50;;;;;;;78.10;32.70;;;;;;;-145.18;100.00;47508.22;5067913;28;20570;-71
2021/12/16 03:00:17;;;;;;;72.65;33.00;;;;;;;-145.18;100.00;47484.78;5067643;28;20261;-71
2021/12/16 03:02:47;;;;;;;73.57;32.70;;;;;;;-145.18;100.00;47492.59;5067673;28;20046;-71
2021/12/16 03:05:14;;;;;;;68.20;31.13;;;;;;;-145.18;100.00;47502.38;5067507;28;20774;-71
2021/12/16 03:07:39;;;;;;;74.20;32.87;;;;;;;-145.18;100.00;47494.56;5067422;28;20269;-71
2021/12/16 03:13:11;;;;;;;70.03;31.97;;;;;;;-145.18;100.00;47494.56;5067591;28;20036;-71
2021/12/16 03:16:34;;;;;;;78.33;32.27;;;;;;;-145.18;100.00;47480.88;5067163;28;20261;-71
2021/12/16 03:21:21;;;;;;;76.07;32.43;;;;;;;-145.18;100.00;47500.41;5058691;28;20277;-71
2021/12/16 03:24:06;;;;;;;71.63;32.30;;;;;;;-145.18;100.00;47476.97;5067752;28;20268;-71
2021/12/16 03:29:15;;;;;;;68.50;33.43;;;;;;;-145.18;100.00;47478.94;5067191;28;20319;-71
2021/12/16 03:36:49;;;;;;;71.20;32.77;;;;;;;-145.18;100.00;47488.69;5066564;28;20110;-71
2021/12/16 03:39:15;;;;;;;70.20;31.67;;;;;;;-145.18;100.00;47484.78;5067470;28;20327;-71
2021/12/16 03:41:41;;;;;;;74.80;31.57;;;;;;;-145.18;100.00;47521.91;5065284;28;20275;-71
2021/12/16 03:44:11;;;;;;;69.90;30.87;;;;;;;-145.18;100.00;47492.59;5067126;28;20261;-71
2021/12/16 03:46:42;;;;;;;63.70;30.23;;;;;;;-145.18;100.00;47490.66;5066630;28;20790;-71
2021/12/16 03:49:25;;;;;;;71.87;31.87;;;;;;;-145.18;100.00;47482.84;5066966;28;20782;-71
2021/12/16 03:52:06;;;;;;;69.03;31.30;;;;;;;-145.18;100.00;47496.50;5066833;28;20269;-71
2021/12/16 03:54:38;;;;;;;78.33;32.50;;;;;;;-145.18;100.00;47492.59;5066897;28;20976;-72
2021/12/16 03:57:06;;;;;;;70.43;31.73;;;;;;;-145.18;100.00;47508.22;5065180;28;20274;-71
2021/12/16 03:59:33;;;;;;;74.43;32.80;;;;;;;-145.18;100.00;47492.59;5066369;28;20810;-72
2021/12/16 04:02:02;;;;;;;71.87;31.70;;;;;;;-145.18;100.00;47508.22;5066903;28;20371;-72
2021/12/16 04:04:28;;;;;;;80.43;33.27;;;;;;;-145.18;100.00;47516.06;5066601;28;20372;-71
2021/12/16 04:06:53;;;;;;;83.40;34.33;;;;;;;-145.18;100.00;47490.66;5066862;28;20364;-72
2021/12/16 04:09:19;;;;;;;91.63;36.00;;;;;;;-145.18;100.00;47506.28;5066698;28;20037;-71
2021/12/16 04:11:56;;;;;;;82.20;33.67;;;;;;;-145.18;100.00;47496.50;5066530;28;20091;-72
2021/12/16 04:14:22;;;;;;;79.00;33.60;;;;;;;-145.18;100.00;47502.38;5066839;28;20071;-71
2021/12/16 04:16:55;;;;;;;78.90;33.10;;;;;;;-145.18;100.00;47508.22;5066840;28;20297;-72
2021/12/16 04:19:24;;;;;;;78.50;34.37;;;;;;;-145.18;100.00;47498.47;5065336;28;20266;-71
2021/12/16 04:21:54;;;;;;;84.00;35.90;;;;;;;-145.18;100.00;47484.78;5066311;28;20280;-71
2021/12/16 04:24:20;;;;;;;77.87;33.40;;;;;;;-145.18;100.00;47504.31;5066332;28;20270;-71
2021/12/16 04:26:49;;;;;;;82.93;33.63;;;;;;;-145.18;100.00;47484.78;5067270;28;20616;-71
2021/12/16 04:29:17;;;;;;;75.93;33.27;;;;;;;-145.18;100.00;47541.44;5066396;28;20044;-71
2021/12/16 04:31:43;;;;;;;76.47;32.07;;;;;;;-145.18;100.00;47521.91;5066246;28;20273;-71
2021/12/16 04:34:09;;;;;;;73.53;31.90;;;;;;;-145.18;100.00;47500.41;5066708;28;20316;-71
2021/12/16 04:36:36;;;;;;;79.50;32.47;;;;;;;-145.18;100.00;47521.91;5065974;28;20289;-71
2021/12/16 04:39:07;;;;;;;72.53;30.20;;;;;;;-145.18;100.00;47510.19;5065329;28;20400;-71
2021/12/16 04:41:33;;;;;;;72.60;32.00;;;;;;;-145.18;100.00;47508.22;5066323;28;20281;-71
2021/12/16 04:43:58;;;;;;;67.37;29.97;;;;;;;-145.18;100.00;47498.47;5064892;28;20281;-71
2021/12/16 04:46:27;;;;;;;82.17;29.80;;;;;;;-145.18;100.00;47529.72;5067093;28;20101;-71
2021/12/16 04:48:55;;;;;;;168.93;29.00;;;;;;;-145.18;100.00;47531.69;5066481;28;20509;-71
2021/12/16 04:51:23;;;;;;;67.47;25.40;;;;;;;-145.18;100.00;47527.78;5066425;28;20789;-71
2021/12/16 04:53:49;;;;;;;100.03;26.37;;;;;;;-145.18;100.00;47527.78;5065293;28;20279;-71
2021/12/16 04:56:16;;;;;;;370.70;31.20;;;;;;;-145.18;100.00;47545.34;5065988;28;20378;-71
2021/12/16 04:58:44;;;;;;;111.07;25.83;;;;;;;-145.18;100.00;47533.63;5066101;28;20049;-71
2021/12/16 05:01:09;;;;;;;60.53;24.90;;;;;;;-145.18;100.00;47566.84;5066317;28;20272;-71
2021/12/16 05:03:35;;;;;;;69.63;28.10;;;;;;;-145.18;100.00;47531.69;5065494;28;20261;-71
2021/12/16 05:06:01;;;;;;;73.10;30.47;;;;;;;-145.18;100.00;47508.22;5066841;28;20066;-71
2021/12/16 05:08:27;;;;;;;336.07;31.77;;;;;;;-145.18;100.00;47545.34;5068140;28;20277;-71
2021/12/16 05:10:56;;;;;;;267.77;26.80;;;;;;;-145.18;100.00;47543.41;5069404;28;20074;-71
2021/12/16 05:13:25;;;;;;;479.80;37.57;;;;;;;-145.18;100.00;47531.69;5069900;28;20290;-71
2021/12/16 05:15:51;;;;;;;423.27;34.00;;;;;;;-145.18;100.00;47553.16;5069432;28;20274;-71
2021/12/16 05:18:24;;;;;;;67.63;28.03;;;;;;;-145.18;100.00;47545.34;5069646;28;20642;-71
2021/12/16 05:20:51;;;;;;;243.80;30.43;;;;;;;-145.18;100.00;47555.13;5069376;28;20642;-71
2021/12/16 05:28:42;;;;;;;395.13;30.90;;;;;;;-145.18;100.00;47541.44;5069591;28;20260;-71
2021/12/16 05:31:09;;;;;;;389.00;33.57;;;;;;;-145.18;100.00;47547.31;5067947;28;20726;-71
2021/12/16 05:33:35;;;;;;;534.37;36.87;;;;;;;-145.18;100.00;47557.06;5069433;28;20357;-71
2021/12/16 05:36:00;;;;;;;177.73;31.13;;;;;;;-145.18;100.00;47529.72;5069334;28;20381;-71
2021/12/16 05:38:28;;;;;;;93.37;32.63;;;;;;;-145.18;100.00;47539.50;5069251;28;20044;-71
2021/12/16 05:40:54;;;;;;;90.17;30.87;;;;;;;-145.18;100.00;47533.63;5068502;28;20049;-71
2021/12/16 05:43:23;;;;;;;76.83;27.77;;;;;;;-145.18;100.00;47516.06;5059778;28;20769;-71
2021/12/16 05:45:50;;;;;;;642.87;37.87;;;;;;;-145.18;100.00;47539.50;5074248;28;20288;-71
2021/12/16 05:48:19;;;;;;;272.00;23.67;;;;;;;-145.18;100.00;47541.44;5068500;28;20334;-71
2021/12/16 05:50:48;;;;;;;280.17;32.40;;;;;;;-145.18;100.00;47527.78;5081802;28;20363;-71
2021/12/16 05:53:14;;;;;;;254.80;33.70;;;;;;;-145.18;100.00;47537.53;5089198;28;20347;-71
2021/12/16 05:55:40;;;;;;;101.83;30.63;;;;;;;-145.18;100.00;47539.50;5086755;28;20757;-71
2021/12/16 05:58:07;;;;;;;68.93;29.13;;;;;;;-145.18;100.00;47547.31;5087104;28;20036;-71
2021/12/16 06:00:36;;;;;;;83.13;31.13;;;;;;;-145.18;100.00;47514.09;5083751;28;20102;-71
2021/12/16 06:03:02;;;;;;;64.10;29.97;;;;;;;-145.18;100.00;47535.59;5068024;28;20288;-71
2021/12/16 06:05:28;;;;;;;76.93;29.70;;;;;;;-145.18;100.00;47543.41;5070516;28;20273;-72
2021/12/16 06:07:54;;;;;;;287.73;27.50;;;;;;;-145.18;100.00;47533.63;5071394;28;20285;-71
2021/12/16 06:13:06;;;;;;;81.37;26.57;;;;;;;-145.18;100.00;47537.53;5088244;28;20283;-71
2021/12/16 06:26:40;;;;;;;51.67;22.47;;;;;;;-145.18;100.00;47527.78;5107517;27;20259;-71
2021/12/16 06:29:05;;;;;;;53.33;24.48;;;;;;;-145.18;100.00;47551.22;5107865;28;20279;-71
2021/12/16 06:31:31;;;;;;;69.70;24.20;;;;;;;-145.18;100.00;47547.31;5096600;27;20033;-71
2021/12/16 06:33:58;;;;;;;120.17;24.07;;;;;;;-145.18;100.00;47545.34;5087424;28;20036;-71
2021/12/16 06:36:23;;;;;;;88.33;23.03;;;;;;;-145.18;100.00;47543.41;5087548;28;20070;-71
2021/12/16 06:38:49;;;;;;;71.13;22.53;;;;;;;-145.18;100.00;47555.13;5086906;28;20630;-71
2021/12/16 06:41:16;;;;;;;53.73;20.23;;;;;;;-145.18;100.00;47539.50;5085960;28;20074;-72
2021/12/16 06:43:42;;;;;;;77.97;23.70;;;;;;;-145.18;100.00;47549.25;5085215;28;20048;-71
2021/12/16 06:46:12;;;;;;;73.70;22.33;;;;;;;-145.18;100.00;47553.16;5082912;28;20264;-71
2021/12/16 06:48:41;;;;;;;55.20;22.30;;;;;;;-145.18;100.00;47533.63;5086909;28;20672;-71
2021/12/16 06:51:21;;;;;;;74.37;21.47;;;;;;;-145.18;100.00;47531.69;5101302;27;20329;-71
2021/12/16 06:54:05;;;;;;;134.90;21.60;;;;;;;-145.18;100.00;47539.50;5082702;28;20269;-71
2021/12/16 06:56:42;;;;;;;81.27;18.87;;;;;;;-145.18;100.00;47549.25;5085664;28;20311;-71
2021/12/16 06:59:19;;;;;;;114.07;21.43;;;;;;;-145.18;100.00;47559.03;5078889;28;20269;-71
2021/12/16 07:01:59;;;;;;;120.70;20.17;;;;;;;-145.18;100.00;47533.63;5084750;28;20874;-71
2021/12/16 07:04:24;;;;;;;61.27;22.00;;;;;;;-145.18;100.00;47533.63;5087138;28;20268;-71
2021/12/16 07:06:50;;;;;;;181.77;21.87;;;;;;;-145.18;100.00;47547.31;5103281;28;20275;-71
2021/12/16 07:09:18;;;;;;;245.23;19.97;;;;;;;-145.18;100.00;47578.56;5098694;28;20039;-71
2021/12/16 07:11:48;;;;;;;29.47;13.97;;;;;;;-145.18;100.00;47568.81;5088143;28;20036;-71
2021/12/16 07:14:16;;;;;;;24.33;11.80;;;;;;;-145.18;100.00;47559.03;5097111;28;20271;-71
2021/12/16 07:16:48;;;;;;;53.37;14.30;;;;;;;-145.18;100.00;47590.28;5100081;28;20275;-69
2021/12/16 07:19:14;;;;;;;39.90;21.13;;;;;;;-145.18;100.00;47555.13;5083571;28;20369;-71
2021/12/16 07:21:41;;;;;;;49.80;18.67;;;;;;;-145.18;100.00;47570.75;5093462;28;20298;-71
2021/12/16 07:24:10;;;;;;;76.83;17.83;;;;;;;-145.18;100.00;47570.75;5094678;28;20846;-71
2021/12/16 07:26:36;;;;;;;147.30;20.30;;;;;;;-145.18;100.00;47574.66;5100671;27;20629;-72
2021/12/16 07:29:04;;;;;;;50.63;18.33;;;;;;;-145.18;100.00;47566.84;5090206;28;20272;-71
2021/12/16 07:31:30;;;;;;;173.47;14.77;;;;;;;-145.18;100.00;47570.75;5084869;28;20681;-71
2021/12/16 07:33:57;;;;;;;308.13;18.07;;;;;;;-145.18;100.00;47564.91;5092061;28;20276;-71
2021/12/16 07:36:23;;;;;;;253.33;17.63;;;;;;;-145.18;100.00;47574.66;5092309;28;20763;-71
2021/12/16 07:38:49;;;;;;;330.97;18.47;;;;;;;-145.18;100.00;47578.56;5097446;28;20280;-71
2021/12/16 07:41:20;;;;;;;232.73;17.53;;;;;;;-145.18;100.00;47584.44;5078681;28;20302;-70
2021/12/16 07:44:09;;;;;;;342.87;19.17;;;;;;;-145.18;100.00;47578.56;5086264;28;20257;-71
2021/12/16 07:46:39;;;;;;;259.60;21.00;;;;;;;-145.18;100.00;47600.06;5092189;27;20272;-71
2021/12/16 07:49:06;;;;;;;200.33;15.13;;;;;;;-145.18;100.00;47594.19;5097692;27;20275;-70
2021/12/16 07:51:33;;;;;;;222.63;14.80;;;;;;;-145.18;100.00;47607.88;5098829;28;20285;-70
2021/12/16 07:53:58;;;;;;;280.67;20.17;;;;;;;-145.18;100.00;47594.19;5100777;28;20325;-70
2021/12/16 07:56:24;;;;;;;304.13;19.40;;;;;;;-145.18;100.00;47605.94;5087379;28;20721;-70
2021/12/16 07:58:49;;;;;;;121.83;16.63;;;;;;;-145.18;100.00;47603.97;5085451;28;20052;-71
2021/12/16 08:01:16;;;;;;;86.30;16.97;;;;;;;-145.18;100.00;47600.06;5098561;28;20132;-71
2021/12/16 08:03:43;;;;;;;54.80;18.83;;;;;;;-145.18;100.00;47605.94;5092191;28;20284;-71
2021/12/16 08:06:13;;;;;;;88.30;17.93;;;;;;;-145.18;100.00;47574.66;5089051;28;20071;-70
2021/12/16 08:08:39;;;;;;;317.17;21.70;;;;;;;-145.18;100.00;47582.47;5094886;28;20314;-70
2021/12/16 08:11:06;;;;;;;347.57;21.33;;;;;;;-145.18;100.00;47590.28;5092584;28;20348;-70
2021/12/16 08:13:31;;;;;;;344.40;25.60;;;;;;;-145.18;100.00;47590.28;5084836;28;20312;-70
2021/12/16 08:15:59;;;;;;;320.60;23.90;;;;;;;-145.18;100.00;47576.63;5087527;28;21076;-71
2021/12/16 08:18:25;;;;;;;138.87;21.00;;;;;;;-145.18;100.00;47570.75;5083984;28;20051;-71
2021/12/16 08:20:50;;;;;;;98.57;18.93;;;;;;;-145.18;100.00;47570.75;5095550;28;20276;-71
2021/12/16 08:23:16;;;;;;;56.47;12.87;;;;;;;-145.18;100.00;47570.75;5091366;28;20059;-70
2021/12/16 08:25:41;;;;;;;47.53;17.37;;;;;;;-145.18;100.00;47562.94;5082547;28;20040;-71
2021/12/16 08:28:08;;;;;;;45.17;20.33;;;;;;;-145.18;100.00;47539.50;5092505;28;20043;-71
2021/12/16 08:30:48;;;;;;;59.57;19.87;;;;;;;-145.18;100.00;47559.03;5091436;28;20043;-71
2021/12/16 08:33:15;;;;;;;50.97;20.17;;;;;;;-145.18;100.00;47543.41;5079311;28;20919;-70
2021/12/16 08:35:45;;;;;;;45.87;19.10;;;;;;;-145.18;100.00;47543.41;5091712;28;20670;-71
2021/12/16 08:38:13;;;;;;;43.47;16.10;;;;;;;-145.18;100.00;47557.06;5100172;28;20280;-70
2021/12/16 08:40:41;;;;;;;38.87;18.90;;;;;;;-145.18;100.00;47551.22;5083343;28;20372;-71
2021/12/16 08:43:10;;;;;;;53.63;22.97;;;;;;;-145.18;100.00;47545.34;5095902;28;20330;-71
2021/12/16 08:45:37;;;;;;;59.50;24.17;;;;;;;-145.18;100.00;47533.63;5087284;28;20670;-71
2021/12/16 08:48:04;;;;;;;45.40;20.33;;;;;;;-145.18;100.00;47555.13;5098208;28;20272;-71
2021/12/16 08:50:33;;;;;;;51.47;22.93;;;;;;;-145.18;100.00;47541.44;5079154;28;20299;-71
2021/12/16 08:53:00;;;;;;;61.90;22.40;;;;;;;-145.18;100.00;47514.09;5086047;28;20272;-70
2021/12/16 08:55:30;;;;;;;57.00;20.73;;;;;;;-145.18;100.00;47547.31;5108634;27;20284;-71
2021/12/16 08:57:56;;;;;;;142.83;15.70;;;;;;;-145.18;100.00;47519.97;5094398;27;20637;-70
2021/12/16 09:00:26;;;;;;;146.47;15.30;;;;;;;-145.18;100.00;47561.00;5079456;28;20277;-70
2021/12/16 09:02:51;;;;;;;38.07;12.33;;;;;;;-145.18;100.00;47539.50;5103321;28;20050;-70
2021/12/16 09:05:17;;;;;;;61.10;13.20;;;;;;;-145.18;100.00;47553.16;5092844;28;20260;-70
2021/12/16 09:07:46;;;;;;;98.43;15.77;;;;;;;-145.18;100.00;47551.22;5085290;28;20497;-71
2021/12/16 09:10:13;;;;;;;87.30;15.67;;;;;;;-145.18;100.00;47523.88;5099988;28;20059;-70
2021/12/16 09:12:52;;;;;;;81.37;16.87;;;;;;;-145.18;100.00;47547.31;5097475;28;20281;-70
2021/12/16 09:15:23;;;;;;;42.87;18.80;;;;;;;-145.18;100.00;47549.25;5092028;28;20273;-70
2021/12/16 09:17:50;;;;;;;32.30;17.27;;;;;;;-145.18;100.00;47547.31;5093337;28;20373;-70
2021/12/16 09:20:15;;;;;;;29.23;14.73;;;;;;;-145.18;100.00;47529.72;5086336;28;20360;-70
2021/12/16 09:22:42;;;;;;;25.57;14.37;;;;;;;-145.18;100.00;47547.31;5086597;28;20682;-70
2021/12/16 09:25:08;;;;;;;24.73;14.03;;;;;;;-145.18;100.00;47531.69;5100599;28;20077;-70
2021/12/16 09:27:33;;;;;;;26.63;15.00;;;;;;;-145.18;100.00;47527.78;5106515;27;20276;-70
2021/12/16 09:29:59;;;;;;;31.10;15.43;;;;;;;-145.18;100.00;47527.78;5103862;28;20048;-70
2021/12/16 09:32:28;;;;;;;33.53;17.07;;;;;;;-145.18;100.00;47518.00;5086560;28;20036;-71
2021/12/16 09:34:55;;;;;;;39.47;18.83;;;;;;;-145.18;100.00;47519.97;5089337;28;20271;-70
2021/12/16 09:37:20;;;;;;;40.40;21.13;;;;;;;-145.18;100.00;47500.41;5096218;28;20284;-70
2021/12/16 09:39:46;;;;;;;42.33;22.27;;;;;;;-145.18;100.00;47500.41;5096307;28;20269;-70
2021/12/16 09:42:11;;;;;;;44.83;22.17;;;;;;;-145.18;100.00;47480.88;5100208;28;20035;-70
2021/12/16 09:44:38;;;;;;;54.53;23.97;;;;;;;-145.18;100.00;47484.78;5096581;28;20044;-70
2021/12/16 09:47:08;;;;;;;49.40;22.33;;;;;;;-145.18;100.00;47482.84;5101576;27;20150;-70
2021/12/16 09:49:34;;;;;;;49.73;25.10;;;;;;;-145.18;100.00;47480.88;5089724;27;20293;-70
2021/12/16 09:52:00;;;;;;;57.23;26.23;;;;;;;-145.18;100.00;47486.75;5104353;27;20294;-71
2021/12/16 09:54:30;;;;;;;55.17;25.47;;;;;;;-145.18;100.00;47492.59;5089184;28;20115;-70
2021/12/16 09:56:57;;;;;;;52.53;25.03;;;;;;;-145.18;100.00;47478.94;5103430;27;20356;-70
2021/12/16 09:59:26;;;;;;;60.20;26.03;;;;;;;-145.18;100.00;47469.16;5097460;27;20310;-70
2021/12/16 10:01:54;;;;;;;47.30;25.23;;;;;;;-145.18;100.00;47467.22;5079987;28;20385;-70
2021/12/16 10:04:23;;;;;;;55.77;26.17;;;;;;;-145.18;100.00;47461.34;5093127;28;20619;-70
2021/12/16 10:06:53;;;;;;;60.73;26.83;;;;;;;-145.18;100.00;47453.53;5095301;28;20273;-71
2021/12/16 10:09:20;;;;;;;61.00;27.23;;;;;;;-145.18;100.00;47463.31;5092730;28;20753;-71
2021/12/16 10:11:48;;;;;;;60.00;25.57;;;;;;;-145.18;100.00;47437.91;5103544;28;20275;-70
2021/12/16 10:19:28;;;;;;;60.20;25.80;;;;;;;-145.18;100.00;47449.63;5094987;27;20051;-70
2021/12/16 10:21:55;;;;;;;57.77;25.30;;;;;;;-145.18;100.00;47449.63;5085172;28;20264;-70
2021/12/16 10:24:32;;;;;;;52.80;23.83;;;;;;;-145.18;100.00;47426.19;5090498;28;20489;-70
2021/12/16 10:27:08;;;;;;;55.40;23.07;;;;;;;-145.18;100.00;47434.00;5091706;28;20284;-70
2021/12/16 10:29:43;;;;;;;48.07;22.77;;;;;;;-145.18;100.00;47426.19;5102491;27;20314;-70
2021/12/16 10:32:37;;;;;;;52.13;22.98;;;;;;;-145.18;100.00;47420.31;5086991;28;20052;-70
2021/12/16 10:35:19;;;;;;;51.93;20.97;;;;;;;-145.18;100.00;47439.84;5087187;28;20067;-70
2021/12/16 10:37:51;;;;;;;37.77;19.97;;;;;;;-145.18;100.00;47435.94;5066377;28;20048;-70
2021/12/16 10:41:04;;;;;;;47.77;20.97;;;;;;;-145.18;100.00;47445.72;5067208;28;20253;-70
2021/12/16 10:43:45;;;;;;;39.43;20.77;;;;;;;-145.18;100.00;47420.31;5076696;28;20314;-71
2021/12/16 10:46:15;;;;;;;46.30;20.97;;;;;;;-145.18;100.00;47416.41;5084520;28;20272;-70
2021/12/16 10:48:45;;;;;;;35.47;19.10;;;;;;;-145.18;100.00;47418.38;5063188;28;20129;-71
2021/12/16 10:51:18;;;;;;;40.50;18.60;;;;;;;-145.18;100.00;47414.47;5064287;28;20047;-70
2021/12/16 10:54:02;;;;;;;40.87;18.87;;;;;;;-145.18;100.00;47426.19;5061047;28;20040;-71
2021/12/16 10:56:53;;;;;;;37.00;17.90;;;;;;;-145.18;100.00;47416.41;5076200;28;20299;-71
2021/12/16 10:59:35;;;;;;;33.20;17.53;;;;;;;-145.18;100.00;47414.47;5086117;28;20116;-71
2021/12/16 11:02:13;;;;;;;40.60;18.60;;;;;;;-145.18;100.00;47404.69;5084125;28;20269;-71
2021/12/16 11:04:53;;;;;;;36.80;17.53;;;;;;;-145.18;100.00;47383.19;5090914;27;20036;-71
2021/12/16 11:07:24;;;;;;;34.80;17.83;;;;;;;-145.18;100.00;47387.09;5088603;28;20524;-71
2021/12/16 11:10:01;;;;;;;35.53;18.30;;;;;;;-145.18;100.00;47402.72;5086022;28;20573;-71
2021/12/16 11:12:36;;;;;;;39.93;16.27;;;;;;;-145.18;100.00;47394.91;5094027;27;20039;-71
2021/12/16 11:15:07;;;;;;;33.37;16.27;;;;;;;-145.18;100.00;47385.16;5089483;28;20035;-71
2021/12/16 11:17:39;;;;;;;31.53;16.20;;;;;;;-145.18;100.00;47396.88;5095496;28;20700;-71
2021/12/16 11:20:04;;;;;;;27.23;14.87;;;;;;;-145.18;100.00;47400.78;5076458;28;20123;-71
2021/12/16 11:22:37;;;;;;;30.40;15.73;;;;;;;-145.18;100.00;47400.78;5093577;27;20123;-71
2021/12/16 11:25:40;;;;;;;26.87;14.17;;;;;;;-145.18;100.00;47375.38;5078465;28;20047;-72
2021/12/16 11:28:11;;;;;;;24.60;14.20;;;;;;;-145.18;100.00;47389.06;5060938;28;20063;-71
2021/12/16 11:30:43;;;;;;;28.53;15.40;;;;;;;-145.18;100.00;47383.19;5068415;28;20464;-72
2021/12/16 11:33:21;;;;;;;31.07;14.43;;;;;;;-145.18;100.00;47391.00;5071199;28;20124;-72
2021/12/16 11:36:16;;;;;;;26.53;12.93;;;;;;;-145.18;100.00;47387.09;5067700;28;20032;-71
2021/12/16 11:38:49;;;;;;;28.07;13.13;;;;;;;-145.18;100.00;47394.91;5076663;28;20119;-72
2021/12/16 11:41:29;;;;;;;25.20;13.00;;;;;;;-145.18;100.00;47371.47;5095081;28;20068;-72
2021/12/16 11:44:03;;;;;;;29.27;14.77;;;;;;;-145.18;100.00;47375.38;5079729;28;20036;-72
2021/12/16 11:46:36;;;;;;;31.70;15.00;;;;;;;-145.18;100.00;47379.28;5083977;28;20062;-72
2021/12/16 11:49:20;;;;;;;29.77;13.70;;;;;;;-145.18;100.00;47373.44;5078105;28;20199;-72
2021/12/16 11:52:02;;;;;;;29.10;14.00;;;;;;;-145.18;100.00;47383.19;5069856;28;20047;-72
2021/12/16 11:54:42;;;;;;;26.47;13.47;;;;;;;-145.18;100.00;47369.53;5074542;28;20067;-72
2021/12/16 11:57:27;;;;;;;27.33;13.40;;;;;;;-145.18;100.00;47383.19;5083773;28;20088;-72
2021/12/16 12:00:06;;;;;;;27.23;13.57;;;;;;;-145.18;100.00;47340.22;5085306;28;20841;-72
2021/12/16 12:02:36;;;;;;;23.20;12.60;;;;;;;-145.18;100.00;47340.22;5085399;28;20044;-73
2021/12/16 12:05:23;;;;;;;27.33;12.60;;;;;;;-145.18;100.00;47322.63;5075106;28;20048;-72
2021/12/16 12:07:56;;;;;;;28.07;13.50;;;;;;;-145.18;100.00;47308.97;5071903;28;20055;-72
2021/12/16 12:10:47;;;;;;;27.00;12.57;;;;;;;-145.18;100.00;47328.50;5083228;28;20040;-73
2021/12/16 12:13:19;;;;;;;23.80;12.03;;;;;;;-145.18;100.00;47312.88;5083643;28;20079;-72
2021/12/16 12:16:17;;;;;;;23.00;12.43;;;;;;;-145.18;100.00;47316.78;5082090;28;20036;-73
2021/12/16 12:18:49;;;;;;;20.07;11.10;;;;;;;-145.18;100.00;47301.16;5089722;28;20048;-73
2021/12/16 12:21:35;;;;;;;23.27;12.30;;;;;;;-145.18;100.00;47297.22;5095922;28;20043;-73
2021/12/16 12:24:11;;;;;;;30.23;12.88;;;;;;;-145.18;100.00;47297.22;5088777;28;20040;-73
2021/12/16 12:26:59;;;;;;;16.33;10.37;;;;;;;-145.18;100.00;47254.25;5087029;27;20062;-74
2021/12/16 12:29:37;;;;;;;22.47;10.70;;;;;;;-145.18;100.00;47281.59;5084606;28;20068;-73
2021/12/16 12:32:15;;;;;;;23.87;12.20;;;;;;;-145.18;100.00;47262.06;5090242;28;20070;-74
2021/12/16 12:34:45;;;;;;;22.93;11.67;;;;;;;-145.18;100.00;47238.63;5079820;28;20044;-74
2021/12/16 12:37:14;;;;;;;21.40;10.70;;;;;;;-145.18;100.00;47211.28;5089912;28;20139;-74
2021/12/16 12:39:46;;;;;;;17.63;10.63;;;;;;;-145.18;98.56;47213.22;5089787;27;20097;-75
2021/12/16 12:42:14;;;;;;;21.67;11.03;;;;;;;-145.18;96.01;47187.84;5080808;28;20049;-74
2021/12/16 12:44:41;;;;;;;21.07;11.50;;;;;;;-145.18;93.96;47183.94;5085223;28;20471;-75
2021/12/16 12:47:13;;;;;;;21.40;11.07;;;;;;;-145.18;94.98;47219.09;5083378;28;20071;-75
2021/12/16 12:49:39;;;;;;;23.67;11.30;;;;;;;-145.18;92.01;47172.19;5080272;28;20036;-75
2021/12/16 12:52:09;;;;;;;18.27;10.23;;;;;;;-145.18;85.38;47142.91;5086476;27;20038;-75
2021/12/16 12:54:36;;;;;;;22.03;10.00;;;;;;;-145.18;79.64;47162.44;5079565;28;20638;-76
2021/12/16 12:57:25;;;;;;;20.43;9.57;;;;;;;-145.18;72.83;47131.19;5090080;28;20043;-75
2021/12/16 12:59:51;;;;;;;16.97;9.83;;;;;;;-145.18;70.27;47105.78;5083956;28;20070;-76
2021/12/16 13:02:20;;;;;;;18.00;9.77;;;;;;;-145.18;68.10;47078.44;5097419;28;20048;-76
2021/12/16 13:04:54;;;;;;;19.50;10.40;;;;;;;-145.18;63.25;47068.66;5103996;27;20069;-76
2021/12/16 13:07:31;;;;;;;18.17;9.53;;;;;;;-145.18;60.83;47084.28;5095276;28;20455;-76
2021/12/16 13:09:57;;;;;;;15.20;8.63;;;;;;;-145.18;61.64;47103.81;5088666;28;20060;-77
2021/12/16 13:12:46;;;;;;;19.20;9.03;;;;;;;-145.18;61.06;47088.19;5093286;28;20064;-77
2021/12/16 13:23:38;;;;;;;14.52;8.13;;;;;;;-145.18;61.80;47096.00;5077127;28;20108;-76
2021/12/16 13:29:01;;;;;;;19.47;7.90;;;;;;;-145.18;63.71;47117.50;5078999;28;20091;-76
2021/12/16 13:31:32;;;;;;;16.23;8.70;;;;;;;-145.18;59.52;47101.88;5077393;28;20424;-77
2021/12/16 13:33:59;;;;;;;14.47;7.87;;;;;;;-145.18;61.46;47107.72;5077666;28;20136;-76
2021/12/16 13:36:46;;;;;;;14.10;7.57;;;;;;;-145.18;67.59;47158.53;5077444;28;20037;-76
2021/12/16 13:39:20;;;;;;;12.27;7.77;;;;;;;-145.18;69.61;47154.63;5078974;28;20036;-77
2021/12/16 13:41:59;;;;;;;13.77;7.33;;;;;;;-145.18;67.29;47154.63;5074707;28;20040;-79
2021/12/16 13:45:03;;;;;;;18.37;7.53;;;;;;;-145.18;65.75;47144.84;5074609;28;20066;-78
2021/12/16 13:47:45;;;;;;;14.40;8.07;;;;;;;-145.18;66.18;47137.03;5059416;28;20040;-78
2021/12/16 14:02:05;;;;;;;13.53;7.47;;;;;;;-145.18;63.63;47133.13;5047769;28;20485;-79
2021/12/16 14:07:27;;;;;;;17.13;8.03;;;;;;;-145.18;64.59;47142.91;5068885;28;20090;-79